KLM0961 EHAM-EGNT
Flight info
| Callsign | KLM0961 |
|---|---|
| Flight time | 0h 59m |
| Altitude | 30000 |
| Route | BERGI L60 SOPEK/N0404F240 L989 BODSO/N0443F300 Y70 BATLI/N0404F240 Y250 RIMTO |
| Aircraft | A21N/M-SDE2E3FGHIRWXY/LB1 |
Departure
| Time | 2026-05-04 08:08 |
|---|---|
| Airport | Amsterdam Airport Schiphol (EHAM) |
Arrival
| Time | 2026-05-04 09:07 |
|---|---|
| Airport | Newcastle International Airport (EGNT) |
| Time | Latitude | Longitude | Altitude | Speed | Heading |
|---|---|---|---|---|---|
| 2026-05-04 07:57 | 52.30709 | 4.77155 | 2 ft | 0 kts | 3° |
| 2026-05-04 08:00 | 52.30693 | 4.77154 | 2 ft | 1 kts | 21° |
| 2026-05-04 08:00 | 52.30675 | 4.77143 | 2 ft | 4 kts | 339° |
| 2026-05-04 08:02 | 52.30655 | 4.77178 | 2 ft | 0 kts | 302° |
| 2026-05-04 08:04 | 52.30655 | 4.77144 | -5 ft | 9 kts | 262° |
| 2026-05-04 08:04 | 52.30619 | 4.77050 | 2 ft | 11 kts | 194° |
| 2026-05-04 08:04 | 52.30542 | 4.77096 | 2 ft | 14 kts | 144° |
| 2026-05-04 08:05 | 52.30474 | 4.77205 | 2 ft | 15 kts | 91° |
| 2026-05-04 08:05 | 52.30521 | 4.77370 | 2 ft | 18 kts | 58° |
| 2026-05-04 08:05 | 52.30549 | 4.77547 | 2 ft | 17 kts | 131° |
| 2026-05-04 08:05 | 52.30502 | 4.77580 | 2 ft | 0 kts | 176° |
| 2026-05-04 08:06 | 52.30470 | 4.77581 | 1 ft | 12 kts | 181° |
| 2026-05-04 08:08 | 52.27277 | 4.69677 | 1968 ft | 195 kts | 227° |
| 2026-05-04 08:08 | 52.26273 | 4.68013 | 2197 ft | 217 kts | 224° |
| 2026-05-04 08:10 | 52.27807 | 4.49920 | 6194 ft | 270 kts | 329° |
| 2026-05-04 08:11 | 52.29432 | 4.48358 | 6725 ft | 272 kts | 328° |
| 2026-05-04 08:11 | 52.32712 | 4.45148 | 7735 ft | 277 kts | 327° |
| 2026-05-04 08:11 | 52.34343 | 4.43536 | 8238 ft | 279 kts | 328° |
| 2026-05-04 08:12 | 52.36122 | 4.42234 | 8731 ft | 283 kts | 343° |
| 2026-05-04 08:12 | 52.38073 | 4.41678 | 9226 ft | 287 kts | 351° |
| 2026-05-04 08:12 | 52.40068 | 4.41353 | 9717 ft | 290 kts | 352° |
| 2026-05-04 08:12 | 52.42087 | 4.41059 | 10130 ft | 294 kts | 352° |
| 2026-05-04 08:13 | 52.44166 | 4.40750 | 10314 ft | 306 kts | 352° |
| 2026-05-04 08:13 | 52.46332 | 4.40418 | 10474 ft | 318 kts | 352° |
| 2026-05-04 08:13 | 52.48556 | 4.40073 | 10767 ft | 323 kts | 352° |
| 2026-05-04 08:13 | 52.50804 | 4.39723 | 11156 ft | 325 kts | 352° |
| 2026-05-04 08:14 | 52.53062 | 4.39368 | 11548 ft | 327 kts | 352° |
| 2026-05-04 08:14 | 52.55332 | 4.39010 | 11937 ft | 329 kts | 352° |
| 2026-05-04 08:14 | 52.57621 | 4.38647 | 12338 ft | 330 kts | 352° |
| 2026-05-04 08:16 | 52.73242 | 4.32754 | 14746 ft | 332 kts | 318° |
| 2026-05-04 08:16 | 52.74903 | 4.30202 | 15029 ft | 330 kts | 308° |
| 2026-05-04 08:16 | 52.76280 | 4.27174 | 15318 ft | 329 kts | 298° |
| 2026-05-04 08:17 | 52.77313 | 4.23812 | 15607 ft | 329 kts | 290° |
| 2026-05-04 08:17 | 52.78157 | 4.20237 | 15823 ft | 342 kts | 287° |
| 2026-05-04 08:17 | 52.78944 | 4.16430 | 16056 ft | 358 kts | 286° |
| 2026-05-04 08:17 | 52.79720 | 4.12437 | 16294 ft | 372 kts | 285° |
| 2026-05-04 08:19 | 52.85611 | 3.82358 | 19768 ft | 403 kts | 286° |
| 2026-05-04 08:19 | 52.86486 | 3.77937 | 20272 ft | 405 kts | 285° |
| 2026-05-04 08:20 | 52.87351 | 3.73555 | 20766 ft | 407 kts | 285° |
| 2026-05-04 08:20 | 52.88231 | 3.69085 | 21268 ft | 409 kts | 285° |
| 2026-05-04 08:20 | 52.89110 | 3.64602 | 21767 ft | 411 kts | 285° |
| 2026-05-04 08:20 | 52.89993 | 3.60090 | 22268 ft | 413 kts | 285° |
| 2026-05-04 08:21 | 52.90879 | 3.55551 | 22752 ft | 415 kts | 285° |
| 2026-05-04 08:21 | 52.91767 | 3.50987 | 23173 ft | 419 kts | 285° |
| 2026-05-04 08:21 | 52.92663 | 3.46370 | 23530 ft | 423 kts | 285° |
| 2026-05-04 08:21 | 52.93565 | 3.41715 | 23917 ft | 425 kts | 285° |
| 2026-05-04 08:22 | 52.94468 | 3.37048 | 24319 ft | 426 kts | 284° |
| 2026-05-04 08:22 | 52.95372 | 3.32366 | 24706 ft | 427 kts | 284° |
| 2026-05-04 08:24 | 53.01670 | 2.99402 | 27503 ft | 428 kts | 284° |
| 2026-05-04 08:24 | 53.02564 | 2.94666 | 27748 ft | 430 kts | 284° |
| 2026-05-04 08:24 | 53.03455 | 2.89934 | 28195 ft | 428 kts | 283° |
| 2026-05-04 08:24 | 53.04343 | 2.85222 | 28671 ft | 425 kts | 283° |
| 2026-05-04 08:25 | 53.05222 | 2.80539 | 29105 ft | 424 kts | 283° |
| 2026-05-04 08:25 | 53.06095 | 2.75881 | 29508 ft | 422 kts | 283° |
| 2026-05-04 08:25 | 53.06965 | 2.71221 | 29893 ft | 421 kts | 283° |
| 2026-05-04 08:25 | 53.07834 | 2.66549 | 30003 ft | 423 kts | 283° |
| 2026-05-04 08:27 | 53.08008 | 2.28611 | 30007 ft | 419 kts | 255° |
| 2026-05-04 08:28 | 53.06635 | 2.19184 | 30012 ft | 419 kts | 255° |
| 2026-05-04 08:28 | 53.05745 | 2.09662 | 30012 ft | 422 kts | 267° |
| 2026-05-04 08:29 | 53.06364 | 1.99927 | 30017 ft | 427 kts | 277° |
| 2026-05-04 08:31 | 53.11168 | 1.60644 | 30023 ft | 434 kts | 279° |
| 2026-05-04 08:33 | 53.15832 | 1.20861 | 30034 ft | 439 kts | 279° |
| 2026-05-04 08:35 | 53.20399 | 0.80709 | 30041 ft | 443 kts | 280° |
| 2026-05-04 08:35 | 53.21528 | 0.70591 | 30039 ft | 441 kts | 279° |
| 2026-05-04 08:37 | 53.25408 | 0.35124 | 30042 ft | 449 kts | 281° |
| 2026-05-04 08:38 | 53.26516 | 0.24791 | 30043 ft | 454 kts | 281° |
| 2026-05-04 08:38 | 53.27626 | 0.14380 | 30043 ft | 455 kts | 281° |
| 2026-05-04 08:40 | 53.35523 | -0.19929 | 30047 ft | 457 kts | 298° |
| 2026-05-04 08:40 | 53.36932 | -0.24702 | 30047 ft | 457 kts | 298° |
| 2026-05-04 08:41 | 53.39729 | -0.34265 | 30046 ft | 457 kts | 298° |
| 2026-05-04 08:41 | 53.42508 | -0.43859 | 30050 ft | 457 kts | 298° |
| 2026-05-04 08:42 | 53.45278 | -0.53476 | 30069 ft | 457 kts | 298° |
| 2026-05-04 08:42 | 53.48035 | -0.63101 | 30067 ft | 457 kts | 298° |
| 2026-05-04 08:43 | 53.50777 | -0.72738 | 30063 ft | 458 kts | 297° |
| 2026-05-04 08:43 | 53.53515 | -0.82399 | 30062 ft | 458 kts | 297° |
| 2026-05-04 08:44 | 53.55803 | -0.90493 | 30061 ft | 458 kts | 297° |
| 2026-05-04 08:46 | 53.64689 | -1.30819 | 30061 ft | 460 kts | 301° |
| 2026-05-04 08:46 | 53.68549 | -1.39296 | 30058 ft | 450 kts | 322° |
| 2026-05-04 08:47 | 53.73630 | -1.45243 | 30047 ft | 446 kts | 332° |
| 2026-05-04 08:47 | 53.78940 | -1.50632 | 29679 ft | 445 kts | 332° |
| 2026-05-04 08:47 | 53.81604 | -1.53338 | 29386 ft | 446 kts | 332° |
| 2026-05-04 08:48 | 53.84265 | -1.56051 | 29093 ft | 447 kts | 332° |
| 2026-05-04 08:48 | 53.86935 | -1.58782 | 28816 ft | 448 kts | 332° |
| 2026-05-04 08:48 | 53.89603 | -1.61517 | 28551 ft | 449 kts | 332° |
| 2026-05-04 08:48 | 53.92272 | -1.64258 | 28183 ft | 448 kts | 332° |
| 2026-05-04 08:49 | 53.94931 | -1.66994 | 27356 ft | 447 kts | 331° |
| 2026-05-04 08:50 | 54.11132 | -1.83568 | 22608 ft | 451 kts | 335° |
| 2026-05-04 08:50 | 54.14065 | -1.85290 | 21946 ft | 443 kts | 350° |
| 2026-05-04 08:51 | 54.17107 | -1.85608 | 21296 ft | 435 kts | 5° |
| 2026-05-04 08:51 | 54.20082 | -1.84924 | 20633 ft | 429 kts | 10° |
| 2026-05-04 08:51 | 54.23009 | -1.84010 | 19979 ft | 425 kts | 11° |
| 2026-05-04 08:51 | 54.25914 | -1.83069 | 19333 ft | 423 kts | 10° |
| 2026-05-04 08:52 | 54.28807 | -1.82137 | 18688 ft | 422 kts | 10° |
| 2026-05-04 08:52 | 54.31648 | -1.81230 | 18008 ft | 420 kts | 9° |
| 2026-05-04 08:52 | 54.34511 | -1.80322 | 17338 ft | 416 kts | 9° |
| 2026-05-04 08:52 | 54.37346 | -1.79424 | 16713 ft | 412 kts | 9° |
| 2026-05-04 08:53 | 54.40165 | -1.78532 | 16228 ft | 409 kts | 9° |
| 2026-05-04 08:54 | 54.59692 | -1.72330 | 11066 ft | 382 kts | 9° |
| 2026-05-04 08:55 | 54.62252 | -1.71512 | 10743 ft | 368 kts | 9° |
| 2026-05-04 08:55 | 54.64730 | -1.70719 | 10330 ft | 357 kts | 9° |
| 2026-05-04 08:55 | 54.67140 | -1.69948 | 9889 ft | 348 kts | 9° |
| 2026-05-04 08:55 | 54.69494 | -1.69219 | 9458 ft | 337 kts | 7° |
| 2026-05-04 08:57 | 54.83491 | -1.67211 | 7771 ft | 254 kts | 2° |
| 2026-05-04 09:01 | 54.91094 | -1.84301 | 3938 ft | 262 kts | 219° |
| 2026-05-04 09:01 | 54.89687 | -1.86293 | 3691 ft | 260 kts | 220° |
| 2026-05-04 09:01 | 54.88289 | -1.88278 | 3532 ft | 258 kts | 220° |
| 2026-05-04 09:01 | 54.86920 | -1.90285 | 3516 ft | 257 kts | 226° |
| 2026-05-04 09:02 | 54.86002 | -1.92897 | 3503 ft | 254 kts | 255° |
| 2026-05-04 09:02 | 54.85939 | -1.95934 | 3501 ft | 254 kts | 283° |
| 2026-05-04 09:02 | 54.86743 | -1.98636 | 3511 ft | 255 kts | 312° |
| 2026-05-04 09:02 | 54.88217 | -2.00328 | 3506 ft | 257 kts | 341° |
| 2026-05-04 09:03 | 54.89992 | -2.00682 | 3511 ft | 260 kts | 5° |
| 2026-05-04 09:03 | 54.91745 | -2.00024 | 3507 ft | 262 kts | 19° |
| 2026-05-04 09:03 | 54.93428 | -1.98787 | 3503 ft | 263 kts | 24° |
| 2026-05-04 09:03 | 54.95081 | -1.97420 | 3507 ft | 263 kts | 25° |
| 2026-05-04 09:04 | 54.96734 | -1.96035 | 3508 ft | 264 kts | 25° |
| 2026-05-04 09:04 | 54.98383 | -1.94651 | 3508 ft | 263 kts | 26° |
| 2026-05-04 09:04 | 54.99809 | -1.92690 | 3511 ft | 264 kts | 53° |
| 2026-05-04 09:04 | 55.00576 | -1.89802 | 3333 ft | 266 kts | 77° |
| 2026-05-04 09:05 | 55.00852 | -1.86607 | 2869 ft | 266 kts | 85° |
| 2026-05-04 09:05 | 55.01017 | -1.83417 | 2502 ft | 261 kts | 86° |
| 2026-05-04 09:05 | 55.01171 | -1.80352 | 2177 ft | 247 kts | 86° |
| 2026-05-04 09:05 | 55.01482 | -1.77555 | 1862 ft | 225 kts | 63° |
| 2026-05-04 09:06 | 55.02203 | -1.75287 | 1374 ft | 207 kts | 68° |
| 2026-05-04 09:07 | 55.04284 | -1.67819 | 246 ft | 35 kts | 245° |
| 2026-05-04 09:08 | 55.04188 | -1.68181 | 246 ft | 32 kts | 245° |
| 2026-05-04 09:08 | 55.04094 | -1.68535 | 246 ft | 32 kts | 245° |
| 2026-05-04 09:08 | 55.04043 | -1.68730 | 247 ft | 10 kts | 245° |
| 2026-05-04 09:08 | 55.04008 | -1.68859 | 248 ft | 13 kts | 244° |
| 2026-05-04 09:09 | 55.03963 | -1.69022 | 248 ft | 16 kts | 245° |
| 2026-05-04 09:09 | 55.03911 | -1.69214 | 250 ft | 19 kts | 245° |
| 2026-05-04 09:09 | 55.03854 | -1.69430 | 251 ft | 20 kts | 245° |
| 2026-05-04 09:09 | 55.03804 | -1.69665 | 254 ft | 21 kts | 255° |
| 2026-05-04 09:10 | 55.03774 | -1.69924 | 256 ft | 22 kts | 264° |
| 2026-05-04 09:10 | 55.03773 | -1.70198 | 259 ft | 23 kts | 274° |
| 2026-05-04 09:10 | 55.03780 | -1.70322 | 260 ft | 4 kts | 275° |
| 2026-05-04 09:10 | 55.03797 | -1.70381 | 260 ft | 7 kts | 318° |
| 2026-05-04 09:11 | 55.03859 | -1.70393 | 260 ft | 12 kts | 8° |
| 2026-05-04 09:11 | 55.03935 | -1.70383 | 259 ft | 8 kts | 0° |
| 2026-05-04 09:11 | 55.03955 | -1.70454 | 260 ft | 8 kts | 276° |
| 2026-05-04 09:11 | 55.03958 | -1.70513 | 260 ft | 1 kts | 274° |
| 2026-05-04 09:12 | 55.03958 | -1.70522 | 260 ft | 0 kts | 274° |